createdAt,value
2018-01-17T00:01:51.739Z,84.45
2018-01-17T00:04:20.961Z,84.54
2018-01-17T00:06:51.055Z,84.56
2018-01-17T00:09:21.038Z,84.51
2018-01-17T00:11:50.315Z,84.48
2018-01-17T00:14:19.518Z,84.82
2018-01-17T00:16:48.732Z,84.63
2018-01-17T00:19:17.914Z,84.65
2018-01-17T00:21:47.300Z,85.07
2018-01-17T00:24:16.440Z,84.90
2018-01-17T00:26:45.749Z,85.11
2018-01-17T00:29:14.974Z,85.03
2018-01-17T00:31:44.198Z,85.40
2018-01-17T00:34:13.442Z,85.36
2018-01-17T00:36:42.644Z,85.23
2018-01-17T00:39:11.877Z,85.33
2018-01-17T00:41:41.943Z,85.18
2018-01-17T00:44:11.141Z,85.40
2018-01-17T00:46:40.339Z,85.21
2018-01-17T00:49:09.542Z,85.12
2018-01-17T00:51:38.763Z,84.97
2018-01-17T00:54:08.021Z,84.81
2018-01-17T00:56:37.219Z,85.04
2018-01-17T00:59:06.435Z,84.95
2018-01-17T01:01:35.653Z,84.99
2018-01-17T01:04:06.378Z,84.86
2018-01-17T01:06:35.582Z,84.74
2018-01-17T01:09:04.950Z,84.68
2018-01-17T01:11:34.144Z,84.92
2018-01-17T01:14:03.347Z,84.55
2018-01-17T01:16:32.559Z,84.80
2018-01-17T01:19:01.977Z,84.47
2018-01-17T01:21:31.184Z,84.43
2018-01-17T01:24:00.645Z,84.44
2018-01-17T01:26:29.978Z,84.79
2018-01-17T01:28:59.219Z,84.40
2018-01-17T01:31:28.426Z,84.21
2018-01-17T01:33:57.692Z,84.21
2018-01-17T01:36:26.944Z,84.23
2018-01-17T01:38:56.226Z,84.42
2018-01-17T01:41:25.574Z,85.32
2018-01-17T01:43:54.929Z,85.71
2018-01-17T01:46:24.156Z,85.96
2018-01-17T01:49:01.965Z,86.41
2018-01-17T01:51:31.205Z,86.84
2018-01-17T01:54:00.399Z,87.24
2018-01-17T01:56:29.624Z,87.31
2018-01-17T01:58:58.843Z,87.36
2018-01-17T02:01:28.043Z,88.06
2018-01-17T02:03:57.218Z,87.92
2018-01-17T02:06:27.354Z,88.02
2018-01-17T02:08:56.553Z,89.22
2018-01-17T02:11:25.797Z,89.55
2018-01-17T02:13:55.750Z,89.87
2018-01-17T02:16:24.967Z,90.55
2018-01-17T02:18:54.246Z,91.07
2018-01-17T02:21:23.532Z,90.95
2018-01-17T02:23:52.746Z,90.40
2018-01-17T02:26:21.951Z,90.78
2018-01-17T02:28:51.237Z,91.54
2018-01-17T02:31:21.158Z,92.62
2018-01-17T02:33:50.451Z,92.91
2018-01-17T02:36:20.510Z,93.24
2018-01-17T02:38:49.732Z,93.36
2018-01-17T02:41:19.705Z,93.64
2018-01-17T02:43:48.927Z,93.72
2018-01-17T02:46:18.107Z,93.91
2018-01-17T02:48:48.045Z,94.04
2018-01-17T02:51:17.320Z,93.72
2018-01-17T02:53:46.529Z,93.84
2018-01-17T02:56:17.195Z,93.73
2018-01-17T02:58:47.151Z,93.42
2018-01-17T03:01:16.355Z,93.42
2018-01-17T03:03:45.582Z,93.16
2018-01-17T03:06:15.562Z,93.06
2018-01-17T03:08:44.768Z,93.12
2018-01-17T03:11:13.941Z,93.03
2018-01-17T03:13:43.220Z,92.78
2018-01-17T03:16:12.403Z,92.73
2018-01-17T03:18:41.602Z,93.04
2018-01-17T03:21:10.815Z,93.09
2018-01-17T03:23:39.994Z,93.24
2018-01-17T03:26:09.198Z,93.30
2018-01-17T03:28:38.393Z,93.09
2018-01-17T03:31:07.635Z,93.01
2018-01-17T03:33:36.862Z,93.03
2018-01-17T03:36:06.041Z,93.10
2018-01-17T03:38:35.266Z,92.96
2018-01-17T03:41:05.278Z,92.93
2018-01-17T03:43:35.333Z,92.87
2018-01-17T03:46:04.534Z,92.93
2018-01-17T03:48:33.798Z,92.82
2018-01-17T03:51:03.750Z,92.87
2018-01-17T03:53:32.958Z,92.82
2018-01-17T03:56:02.151Z,92.75
2018-01-17T03:58:31.337Z,92.72
2018-01-17T04:01:00.522Z,92.86
2018-01-17T04:03:29.753Z,92.57
2018-01-17T04:05:58.949Z,92.79
2018-01-17T04:08:28.152Z,92.98
2018-01-17T04:10:58.131Z,93.22
2018-01-17T04:13:28.197Z,93.12
2018-01-17T04:15:57.391Z,93.24
2018-01-17T04:18:26.626Z,93.41
2018-01-17T04:20:55.894Z,93.20
2018-01-17T04:23:25.114Z,93.45
2018-01-17T04:25:55.178Z,93.29
2018-01-17T04:28:24.355Z,93.29
2018-01-17T04:30:53.570Z,93.29
2018-01-17T04:33:22.807Z,93.30
2018-01-17T04:35:52.047Z,93.25
2018-01-17T04:38:21.290Z,93.40
2018-01-17T04:40:50.506Z,93.06
2018-01-17T04:43:19.726Z,93.09
2018-01-17T04:45:49.691Z,92.96
2018-01-17T04:48:18.874Z,92.93
2018-01-17T04:50:48.243Z,92.87
2018-01-17T04:53:18.195Z,92.71
2018-01-17T04:55:47.575Z,92.92
2018-01-17T04:58:16.767Z,93.00
2018-01-17T05:00:46.010Z,92.77
2018-01-17T05:03:15.242Z,92.75
2018-01-17T05:05:45.208Z,92.87
2018-01-17T05:08:14.409Z,92.91
2018-01-17T05:10:43.591Z,92.59
2018-01-17T05:13:12.805Z,92.57
2018-01-17T05:15:42.046Z,92.64
2018-01-17T05:18:12.042Z,93.09
2018-01-17T05:20:41.249Z,93.23
2018-01-17T05:23:11.225Z,93.25
2018-01-17T05:25:40.389Z,93.28
2018-01-17T05:28:09.635Z,93.24
2018-01-17T05:30:38.773Z,93.23
2018-01-17T05:33:08.061Z,93.05
2018-01-17T05:35:38.034Z,93.18
2018-01-17T05:38:07.237Z,93.18
2018-01-17T05:40:36.434Z,93.21
2018-01-17T05:43:05.637Z,93.33
2018-01-17T05:45:34.850Z,93.23
2018-01-17T05:48:04.058Z,92.97
2018-01-17T05:50:34.048Z,93.12
2018-01-17T05:53:03.233Z,93.28
2018-01-17T05:55:32.449Z,93.53
2018-01-17T05:58:01.653Z,93.50
2018-01-17T06:00:30.892Z,93.45
2018-01-17T06:03:00.090Z,93.18
2018-01-17T06:05:29.298Z,93.52
2018-01-17T06:07:58.478Z,93.40
2018-01-17T06:10:27.733Z,93.49
2018-01-17T06:12:56.913Z,93.52
2018-01-17T06:15:26.136Z,93.28
2018-01-17T06:17:55.445Z,93.47
2018-01-17T06:20:25.409Z,93.31
2018-01-17T06:22:54.625Z,93.21
2018-01-17T06:25:23.840Z,93.16
2018-01-17T06:27:53.062Z,93.13
2018-01-17T06:30:23.023Z,93.15
2018-01-17T06:32:52.254Z,93.21
2018-01-17T06:35:21.477Z,93.13
2018-01-17T06:37:51.471Z,93.18
2018-01-17T06:40:20.691Z,93.28
2018-01-17T06:42:50.109Z,93.30
2018-01-17T06:45:19.332Z,93.27
2018-01-17T06:47:48.570Z,93.05
2018-01-17T06:50:17.845Z,92.97
2018-01-17T06:52:47.075Z,93.08
2018-01-17T06:55:17.048Z,92.69
2018-01-17T06:57:46.382Z,92.97
2018-01-17T07:00:17.099Z,92.87
2018-01-17T07:02:46.322Z,92.79
2018-01-17T07:05:15.518Z,92.73
2018-01-17T07:07:44.747Z,92.75
2018-01-17T07:10:13.954Z,92.75
2018-01-17T07:12:43.152Z,92.72
2018-01-17T07:15:12.401Z,92.54
2018-01-17T07:17:42.370Z,92.53
2018-01-17T07:20:11.577Z,92.59
2018-01-17T07:22:40.801Z,92.59
2018-01-17T07:25:11.693Z,92.60
2018-01-17T07:27:41.618Z,92.49
2018-01-17T07:30:10.841Z,92.71
2018-01-17T07:32:40.047Z,92.50
2018-01-17T07:35:09.262Z,92.38
2018-01-17T07:37:39.277Z,92.15
2018-01-17T07:40:09.274Z,91.97
2018-01-17T07:42:40.019Z,92.12
2018-01-17T07:45:10.024Z,92.01
2018-01-17T07:47:40.830Z,91.83
2018-01-17T07:50:10.105Z,91.77
2018-01-17T07:52:39.343Z,91.86
2018-01-17T07:55:08.555Z,91.73
2018-01-17T07:57:37.779Z,91.62
2018-01-17T08:00:07.761Z,91.74
2018-01-17T08:02:37.854Z,91.63
2018-01-17T08:05:07.071Z,91.30
2018-01-17T08:07:36.307Z,91.24
2018-01-17T08:10:06.342Z,91.22
2018-01-17T08:12:35.720Z,91.42
2018-01-17T08:15:05.876Z,90.80
2018-01-17T08:17:35.076Z,91.07
2018-01-17T08:20:04.318Z,90.99
2018-01-17T08:22:33.501Z,90.93
2018-01-17T08:25:02.727Z,91.07
2018-01-17T08:27:32.764Z,91.15
2018-01-17T08:30:02.169Z,91.79
2018-01-17T08:32:32.146Z,92.18
2018-01-17T08:35:02.135Z,92.50
2018-01-17T08:37:31.423Z,92.38
2018-01-17T08:40:00.623Z,92.59
2018-01-17T08:42:29.967Z,92.90
2018-01-17T08:44:59.203Z,93.04
2018-01-17T08:47:28.434Z,93.29
2018-01-17T08:49:57.650Z,93.41
2018-01-17T08:52:26.857Z,93.58
2018-01-17T08:54:56.195Z,93.54
2018-01-17T08:57:25.412Z,93.41
2018-01-17T08:59:54.615Z,93.66
2018-01-17T09:02:23.929Z,93.70
2018-01-17T09:04:53.138Z,93.53
2018-01-17T09:07:22.359Z,93.65
2018-01-17T09:09:52.359Z,93.76
2018-01-17T09:12:21.682Z,93.80
2018-01-17T09:14:50.906Z,93.74
2018-01-17T09:17:20.417Z,93.86
2018-01-17T09:19:50.463Z,94.03
2018-01-17T09:22:19.761Z,93.94
2018-01-17T09:24:49.021Z,93.71
2018-01-17T09:27:18.241Z,93.78
2018-01-17T09:29:47.450Z,93.85
2018-01-17T09:32:16.722Z,93.80
2018-01-17T09:34:45.970Z,93.65
2018-01-17T09:37:15.172Z,93.55
2018-01-17T09:39:45.161Z,93.40
2018-01-17T09:42:14.391Z,93.23
2018-01-17T09:44:43.608Z,93.10
2018-01-17T09:47:12.830Z,93.03
2018-01-17T09:49:42.105Z,93.09
2018-01-17T09:52:11.387Z,92.86
2018-01-17T09:54:41.397Z,92.84
2018-01-17T09:57:12.117Z,92.33
2018-01-17T09:59:41.511Z,92.29
2018-01-17T10:02:10.684Z,91.98
2018-01-17T10:04:39.902Z,91.40
2018-01-17T10:07:09.098Z,91.76
2018-01-17T10:09:38.303Z,91.42
2018-01-17T10:12:07.518Z,91.35
2018-01-17T10:14:36.734Z,91.34
2018-01-17T10:17:06.752Z,91.85
2018-01-17T10:19:36.739Z,92.27
2018-01-17T10:22:06.140Z,92.58
2018-01-17T10:24:35.378Z,92.42
2018-01-17T10:27:04.584Z,92.26
2018-01-17T10:29:33.788Z,92.45
2018-01-17T10:32:02.981Z,92.21
2018-01-17T10:34:32.275Z,91.98
2018-01-17T10:50:01.566Z,92.30
2018-01-17T10:52:30.807Z,91.94
2018-01-17T10:55:00.054Z,91.73
2018-01-17T10:57:30.324Z,91.10
2018-01-17T10:59:59.566Z,91.33
2018-01-17T11:02:28.802Z,91.20
2018-01-17T11:04:58.063Z,91.21
2018-01-17T11:07:27.296Z,90.65
2018-01-17T11:09:56.560Z,90.57
2018-01-17T11:12:25.949Z,90.08
2018-01-17T11:14:56.014Z,89.67
2018-01-17T11:17:25.236Z,89.63
2018-01-17T11:19:55.261Z,89.78
2018-01-17T11:22:25.278Z,89.58
2018-01-17T11:24:54.554Z,89.86
2018-01-17T11:27:23.795Z,90.24
2018-01-17T11:29:53.071Z,90.42
2018-01-17T11:32:22.315Z,89.93
2018-01-17T11:34:51.608Z,90.17
2018-01-17T11:37:20.821Z,89.89
2018-01-17T11:39:50.016Z,89.86
2018-01-17T11:42:19.276Z,89.53
2018-01-17T11:44:49.246Z,89.51
2018-01-17T11:47:18.492Z,89.83
2018-01-17T11:49:48.486Z,90.09
2018-01-17T11:52:17.751Z,90.24
2018-01-17T11:54:46.950Z,90.42
2018-01-17T11:57:16.248Z,90.02
2018-01-17T11:59:45.450Z,90.37
2018-01-17T12:02:14.703Z,90.39
2018-01-17T12:04:43.936Z,90.68
2018-01-17T12:07:13.376Z,90.46
2018-01-17T12:09:42.673Z,90.68
2018-01-17T12:12:11.839Z,90.76
2018-01-17T12:14:41.271Z,90.91
2018-01-17T12:17:10.530Z,91.23
2018-01-17T12:19:39.725Z,91.95
2018-01-17T12:22:08.964Z,91.88
2018-01-17T12:24:38.228Z,91.83
2018-01-17T12:27:07.464Z,92.42
2018-01-17T12:29:36.746Z,92.78
2018-01-17T12:32:06.012Z,93.16
2018-01-17T12:37:11.195Z,93.59
2018-01-17T12:39:40.484Z,93.48
2018-01-17T12:42:09.831Z,93.64
2018-01-17T12:44:39.804Z,93.25
2018-01-17T12:47:08.993Z,92.71
2018-01-17T12:49:38.405Z,92.13
2018-01-17T12:52:07.674Z,91.85
2018-01-17T12:54:36.908Z,92.21
2018-01-17T12:57:06.145Z,92.38
2018-01-17T12:59:36.122Z,92.23
2018-01-17T13:02:05.353Z,92.12
2018-01-17T13:04:35.355Z,92.29
2018-01-17T13:07:04.574Z,92.28
2018-01-17T13:09:33.850Z,92.14
2018-01-17T13:12:03.838Z,91.36
2018-01-17T13:14:33.130Z,91.38
2018-01-17T13:17:02.374Z,91.08
2018-01-17T13:19:32.400Z,90.31
2018-01-17T13:22:02.416Z,90.15
2018-01-17T13:24:32.515Z,90.58
2018-01-17T13:27:01.744Z,89.92
2018-01-17T13:29:31.755Z,89.95
2018-01-17T13:32:01.027Z,89.68
2018-01-17T13:34:31.027Z,89.32
2018-01-17T13:37:00.507Z,89.20
2018-01-17T13:39:29.711Z,89.55
2018-01-17T13:41:58.974Z,89.56
2018-01-17T13:44:28.166Z,89.59
2018-01-17T13:46:58.483Z,89.60
2018-01-17T13:49:28.576Z,89.35
2018-01-17T13:51:57.825Z,90.08
2018-01-17T13:54:27.073Z,89.48
2018-01-17T13:56:56.286Z,90.08
2018-01-17T13:59:25.527Z,90.77
2018-01-17T14:01:54.782Z,90.87
2018-01-17T14:04:23.986Z,90.85
2018-01-17T14:06:54.022Z,91.18
2018-01-17T14:09:23.243Z,91.03
2018-01-17T14:11:52.454Z,91.26
2018-01-17T14:14:21.754Z,90.57
2018-01-17T14:16:50.956Z,90.68
2018-01-17T14:19:20.254Z,89.55
2018-01-17T14:21:50.456Z,90.45
2018-01-17T14:24:19.890Z,91.25
2018-01-17T14:26:49.099Z,91.27
2018-01-17T14:29:18.344Z,90.22
2018-01-17T14:31:47.559Z,90.19
2018-01-17T14:34:16.771Z,89.93
2018-01-17T14:36:46.483Z,90.84
2018-01-17T14:39:16.471Z,90.91
2018-01-17T14:41:45.975Z,91.24
2018-01-17T14:44:15.222Z,91.17
2018-01-17T14:46:44.473Z,91.65
2018-01-17T14:49:13.658Z,91.80
2018-01-17T14:51:43.073Z,92.45
2018-01-17T14:54:12.331Z,92.20
2018-01-17T14:56:42.363Z,92.45
2018-01-17T14:59:11.570Z,92.11
2018-01-17T15:01:40.840Z,91.99
2018-01-17T15:04:11.574Z,91.86
2018-01-17T15:06:41.840Z,91.95
2018-01-17T15:09:11.227Z,91.76
2018-01-17T15:11:40.550Z,91.49
2018-01-17T15:14:10.106Z,91.50
2018-01-17T15:16:39.350Z,90.49
2018-01-17T15:19:08.552Z,90.82
2018-01-17T15:21:37.741Z,89.99
2018-01-17T15:24:06.966Z,89.84
2018-01-17T15:26:36.245Z,89.77
2018-01-17T15:29:05.571Z,90.24
2018-01-17T15:31:34.815Z,89.34
2018-01-17T15:34:04.834Z,88.87
2018-01-17T15:36:34.799Z,88.06
2018-01-17T15:39:04.038Z,86.96
2018-01-17T15:41:33.258Z,86.70
2018-01-17T15:44:02.505Z,87.69
2018-01-17T15:46:31.723Z,87.83
2018-01-17T15:49:01.734Z,87.04
2018-01-17T15:51:31.722Z,87.66
2018-01-17T15:54:01.020Z,86.62
2018-01-17T15:56:30.447Z,87.79
2018-01-17T15:58:59.685Z,87.56
2018-01-17T16:01:30.859Z,87.65
2018-01-17T16:04:00.090Z,88.05
2018-01-17T16:06:29.309Z,87.55
2018-01-17T16:08:58.534Z,88.09
2018-01-17T16:11:27.815Z,88.25
2018-01-17T16:13:57.009Z,88.43
2018-01-17T16:16:26.290Z,88.94
2018-01-17T16:18:56.339Z,89.44
2018-01-17T16:21:25.591Z,89.48
2018-01-17T16:23:55.602Z,89.57
2018-01-17T16:26:24.828Z,89.83
2018-01-17T16:28:55.074Z,89.87
2018-01-17T16:31:25.030Z,89.87
2018-01-17T16:33:55.034Z,89.92
2018-01-17T16:36:24.337Z,90.00
2018-01-17T16:38:53.544Z,89.75
2018-01-17T16:41:22.745Z,89.56
2018-01-17T16:43:52.100Z,89.61
2018-01-17T16:46:21.353Z,89.51
2018-01-17T16:48:50.681Z,89.39
2018-01-17T16:51:20.647Z,89.21
2018-01-17T16:53:49.861Z,88.68
2018-01-17T16:56:19.854Z,88.57
2018-01-17T16:58:50.705Z,88.42
2018-01-17T17:01:19.926Z,87.85
2018-01-17T17:03:49.913Z,87.92
2018-01-17T17:06:19.133Z,87.97
2018-01-17T17:08:48.577Z,88.02
2018-01-17T17:11:17.933Z,87.97
2018-01-17T17:13:47.174Z,87.86
2018-01-17T17:16:16.391Z,87.02
2018-01-17T17:18:45.676Z,86.86
2018-01-17T17:21:14.843Z,87.51
2018-01-17T17:23:44.067Z,87.12
2018-01-17T17:26:13.291Z,85.81
2018-01-17T17:28:42.542Z,86.63
2018-01-17T17:31:11.792Z,86.69
2018-01-17T17:33:41.936Z,87.39
2018-01-17T17:36:11.933Z,88.36
2018-01-17T17:38:41.184Z,88.19
2018-01-17T17:41:10.438Z,88.84
2018-01-17T17:43:41.832Z,89.11
2018-01-17T17:46:11.836Z,89.77
2018-01-17T17:48:41.083Z,89.61
2018-01-17T17:51:10.410Z,89.17
2018-01-17T17:53:39.612Z,88.66
2018-01-17T17:56:08.839Z,89.12
2018-01-17T17:58:38.051Z,89.48
2018-01-17T18:01:07.262Z,89.53
2018-01-17T18:03:36.499Z,89.52
2018-01-17T18:06:07.728Z,89.19
2018-01-17T18:08:36.959Z,89.18
2018-01-17T18:11:06.996Z,89.34
2018-01-17T18:13:37.672Z,89.04
2018-01-17T18:16:06.891Z,88.91
2018-01-17T18:18:36.118Z,87.90
2018-01-17T18:21:05.334Z,87.88
2018-01-17T18:23:34.544Z,87.86
2018-01-17T18:26:03.909Z,87.77
2018-01-17T18:28:33.231Z,87.52
2018-01-17T18:31:02.517Z,86.96
2018-01-17T18:33:31.753Z,87.35
2018-01-17T18:36:01.149Z,86.88
2018-01-17T18:38:30.343Z,87.20
2018-01-17T18:40:59.579Z,86.98
2018-01-17T18:43:28.830Z,87.03
2018-01-17T18:45:58.046Z,86.79
2018-01-17T18:48:27.257Z,86.83
2018-01-17T18:50:56.508Z,86.55
2018-01-17T18:53:25.863Z,86.49
2018-01-17T18:55:55.161Z,85.98
2018-01-17T18:58:25.367Z,85.79
2018-01-17T19:00:54.798Z,85.75
2018-01-17T19:03:24.061Z,85.55
2018-01-17T19:05:53.294Z,85.12
2018-01-17T19:08:22.789Z,85.32
2018-01-17T19:10:53.563Z,85.36
2018-01-17T19:13:22.757Z,85.21
2018-01-17T19:15:51.962Z,85.31
2018-01-17T19:18:21.185Z,85.60
2018-01-17T19:20:50.408Z,85.35
2018-01-17T19:23:20.420Z,85.44
2018-01-17T19:25:49.620Z,84.96
2018-01-17T19:28:18.870Z,85.71
2018-01-17T19:30:48.081Z,85.24
2018-01-17T19:33:17.409Z,85.10
2018-01-17T19:35:47.465Z,84.89
2018-01-17T19:38:16.663Z,84.71
2018-01-17T19:40:46.648Z,84.60
2018-01-17T19:43:16.735Z,84.47
2018-01-17T19:45:46.048Z,84.58
2018-01-17T19:48:15.364Z,84.33
2018-01-17T19:50:46.182Z,84.31
2018-01-17T19:53:15.422Z,83.89
2018-01-17T19:55:45.439Z,83.72
2018-01-17T19:58:15.437Z,83.98
2018-01-17T20:00:45.453Z,84.06
2018-01-17T20:03:14.660Z,83.95
2018-01-17T20:05:44.087Z,83.79
2018-01-17T20:08:13.327Z,83.94
2018-01-17T20:10:43.344Z,83.45
2018-01-17T20:13:12.568Z,83.65
2018-01-17T20:15:42.617Z,83.64
2018-01-17T20:18:12.552Z,83.52
2018-01-17T20:20:41.836Z,83.98
2018-01-17T20:23:11.042Z,83.69
2018-01-17T20:25:40.267Z,83.83
2018-01-17T20:28:09.487Z,83.96
2018-01-17T20:30:38.786Z,83.80
2018-01-17T20:33:08.994Z,83.69
2018-01-17T20:35:38.289Z,83.94
2018-01-17T20:38:07.504Z,83.79
2018-01-17T20:40:36.727Z,83.69
2018-01-17T20:43:05.923Z,84.25
2018-01-17T20:45:35.973Z,85.14
2018-01-17T20:48:05.204Z,85.86
2018-01-17T20:50:34.449Z,87.00
2018-01-17T20:53:04.434Z,86.89
2018-01-17T20:55:34.731Z,87.07
2018-01-17T20:58:03.969Z,87.03
2018-01-17T21:00:34.769Z,86.60
2018-01-17T21:03:04.007Z,86.69
2018-01-17T21:05:34.000Z,86.15
2018-01-17T21:08:03.195Z,86.31
2018-01-17T21:10:33.190Z,86.15
2018-01-17T21:13:03.930Z,85.42
2018-01-17T21:15:33.216Z,85.86
2018-01-17T21:18:02.452Z,85.36
2018-01-17T21:20:32.445Z,84.91
2018-01-17T21:23:02.733Z,85.26
2018-01-17T21:25:32.030Z,85.05
2018-01-17T21:28:01.271Z,85.28
2018-01-17T21:30:30.671Z,85.32
2018-01-17T21:32:59.906Z,85.25
2018-01-17T21:35:29.155Z,85.18
2018-01-17T21:37:58.368Z,84.92
2018-01-17T21:40:27.603Z,84.73
2018-01-17T21:43:03.240Z,84.46
2018-01-17T21:45:38.673Z,84.55
2018-01-17T21:48:08.843Z,84.12
2018-01-17T21:50:38.058Z,84.25
2018-01-17T21:53:07.359Z,84.25
2018-01-17T21:55:36.703Z,84.21
2018-01-17T21:58:06.040Z,84.13
2018-01-17T22:00:35.261Z,84.14
2018-01-17T22:03:04.488Z,83.69
2018-01-17T22:05:34.473Z,83.93
2018-01-17T22:08:03.803Z,83.75
2018-01-17T22:10:33.773Z,83.44
2018-01-17T22:13:03.001Z,83.62
2018-01-17T22:15:33.067Z,83.53
2018-01-17T22:18:02.312Z,83.59
2018-01-17T22:20:31.568Z,83.66
2018-01-17T22:23:00.921Z,83.86
2018-01-17T22:25:30.374Z,83.98
2018-01-17T22:27:59.612Z,84.22
2018-01-17T22:30:28.834Z,83.92
2018-01-17T22:32:58.842Z,84.07
2018-01-17T22:35:28.385Z,83.95
2018-01-17T22:37:57.604Z,83.55
2018-01-17T22:40:26.863Z,83.44
2018-01-17T22:42:56.858Z,83.61
2018-01-17T22:45:26.912Z,83.44
2018-01-17T22:47:56.193Z,83.59
2018-01-17T22:50:26.158Z,83.44
2018-01-17T22:52:55.355Z,83.73
2018-01-17T22:55:24.574Z,83.23
2018-01-17T22:57:53.759Z,83.15
2018-01-17T23:00:23.016Z,83.24
2018-01-17T23:02:52.291Z,83.38
2018-01-17T23:05:21.735Z,83.11
2018-01-17T23:07:51.010Z,83.24
2018-01-17T23:10:21.055Z,83.20
2018-01-17T23:12:50.355Z,83.43
2018-01-17T23:15:19.575Z,83.23
2018-01-17T23:17:48.794Z,82.69
2018-01-17T23:20:18.773Z,82.93
2018-01-17T23:22:48.011Z,83.19
2018-01-17T23:25:17.966Z,82.62
2018-01-17T23:27:47.301Z,82.63
2018-01-17T23:30:16.548Z,82.61
2018-01-17T23:32:45.796Z,82.31
2018-01-17T23:35:15.160Z,81.97
2018-01-17T23:37:44.641Z,81.71
2018-01-17T23:40:13.899Z,81.83
2018-01-17T23:42:43.274Z,81.43
2018-01-17T23:45:13.261Z,81.38
2018-01-17T23:47:43.217Z,81.63
2018-01-17T23:50:12.444Z,81.48
2018-01-17T23:52:42.758Z,81.42
2018-01-17T23:55:12.030Z,81.34
2018-01-17T23:57:41.258Z,81.43
